Historyczne dane pomiarowe

Dodano dane terminowe – wersja testowa.

Dane z okresu 1951-2019

Wersja bazy: 1.34 [2019-03-16, lista zmian], aktualizacja planowana na 2019-04-15

Dane meteo z obszaru Polski uzyskane na podstawie danych udostępnionych przez Instytut Meteorologii i Gospodarki Wodnej – Państwowy Instytut Badawczy.

 

Wybierz Datę:    

       

TemperaturaWilgotnośćWiatrCiśnienieOpadyŚniegCzas trwania zjawisk
 Stacja t tx tn tng RH VA  wxwx mslp ppp RRR   cm mm wxwxwxwxwxwxwx
1984-05-15 16.1 21.6 10.2--- 6.7 4.0---- 0.0------------
1984-05-16 17.0 23.1 11.6--- 2.3 3.0---- 0.0------------
1984-05-17 17.1 22.7 12.6--- 6.3 3.7---- 1.4------------
1984-05-18 15.7 21.6 11.2--- 3.7 5.3---- 0.0------------
1984-05-19 14.1 20.7 9.1--- 3.3 1.3---- 0.0------------
1984-05-20 15.5 22.8 6.9--- 1.7 3.3---- 0.0------------
1984-05-21 18.6 25.1 9.2--- 1.0 5.7---- 2.7------------
1984-05-22 15.9 22.4 14.3--- 7.7 4.0---- 0.6------------
1984-05-23 14.0 19.3 9.4--- 7.3 4.0---- 6.8------------
1984-05-24 14.3 19.1 11.5--- 5.7 3.0---- 4.0------------
1984-05-25 13.6 19.7 7.2--- 6.3 1.3---- 6.6------------
1984-05-26 12.1 15.5 11.4--- 8.0 2.3---- 1.9------------
1984-05-27 13.8 18.5 9.7--- 5.3 1.0---- 0.1------------
1984-05-28 15.6 22.3 10.0--- 4.3 3.3---- 8.9------------
1984-05-29 15.6 23.0 10.9--- 8.0 3.0---- 6.7------------
1984-05-30 14.7 20.7 10.8--- 8.0 2.0---- 26.5------------
1984-05-31 17.0 23.2 13.8--- 6.3 2.7---- 0.0------------
1984-06-01 16.2 22.5 11.9--- 6.7 2.7---- 12.7------------
1984-06-02 16.4 21.6 12.1--- 6.7 1.3---- 0.0------------
1984-06-03 17.5 24.1 12.8--- 4.0 2.0---- 0.0------------
1984-06-04 18.7 24.2 13.9--- 2.7 4.0---- 0.0------------
1984-06-05 17.5 21.9 11.4--- 8.0 4.3---- 7.8------------
1984-06-06 18.7 23.3 11.7--- 7.0 2.3---- 0.7------------
1984-06-07 13.7 20.2 9.4--- 8.0 4.0---- 0.0------------
1984-06-08 12.6 16.0 7.4--- 6.0 1.7---- 3.7------------
1984-06-09 11.0 15.5 7.5--- 5.3 4.0---- 8.3------------
1984-06-10 8.5 12.0 4.1--- 5.3 3.0---- 0.3------------
1984-06-11 8.0 13.2 0.8--- 6.7 3.3---- 2.0------------
1984-06-12 9.4 14.4 0.0--- 2.3 3.0---- 0.0------------
1984-06-13 10.3 16.3 -0.4--- 5.3 2.0---- 4.8------------
327.5 ms

 

Źródłem pochodzenia danych jest Instytut Meteorologii i Gospodarki Wodnej – Państwowy Instytut Badawczy. Dane Instytutu Meteorologii i Gospodarki Wodnej – Państwowego Instytutu Badawczego zostały przetworzone.

Dane źródłowe można odnaleźć na stronie https://dane.imgw.pl